sensor_id;sensor_type;location;lat;lon;timestamp;pressure;altitude;pressure_sealevel;temperature;humidity
26859;BME280;14429;48.346;16.338;2023-05-16T00:01:47;99302.28;;;18.06;56.81
26859;BME280;14429;48.346;16.338;2023-05-16T00:04:13;99303.28;;;18.05;56.87
26859;BME280;14429;48.346;16.338;2023-05-16T00:06:38;99302.81;;;18.09;56.72
26859;BME280;14429;48.346;16.338;2023-05-16T00:09:03;99299.97;;;18.10;56.54
26859;BME280;14429;48.346;16.338;2023-05-16T00:11:29;99296.56;;;18.08;56.71
26859;BME280;14429;48.346;16.338;2023-05-16T00:13:54;99286.97;;;18.06;56.74
26859;BME280;14429;48.346;16.338;2023-05-16T00:16:20;99296.88;;;18.06;56.60
26859;BME280;14429;48.346;16.338;2023-05-16T00:18:54;99287.81;;;18.07;56.67
26859;BME280;14429;48.346;16.338;2023-05-16T00:21:19;99288.78;;;18.06;56.57
26859;BME280;14429;48.346;16.338;2023-05-16T00:23:45;99284.72;;;18.02;56.69
26859;BME280;14429;48.346;16.338;2023-05-16T00:26:10;99283.97;;;17.92;56.44
26859;BME280;14429;48.346;16.338;2023-05-16T00:28:36;99287.59;;;18.00;56.63
26859;BME280;14429;48.346;16.338;2023-05-16T00:31:01;99288.44;;;18.01;56.72
26859;BME280;14429;48.346;16.338;2023-05-16T00:33:27;99291.31;;;17.99;56.78
26859;BME280;14429;48.346;16.338;2023-05-16T00:35:53;99296.97;;;17.96;56.76
26859;BME280;14429;48.346;16.338;2023-05-16T00:38:19;99289.56;;;17.98;56.72
26859;BME280;14429;48.346;16.338;2023-05-16T00:40:44;99291.34;;;17.82;56.77
26859;BME280;14429;48.346;16.338;2023-05-16T00:43:10;99291.06;;;17.93;56.96
26859;BME280;14429;48.346;16.338;2023-05-16T00:45:35;99292.44;;;17.97;56.73
26859;BME280;14429;48.346;16.338;2023-05-16T00:48:01;99289.72;;;17.97;56.84
26859;BME280;14429;48.346;16.338;2023-05-16T00:50:26;99294.03;;;17.82;56.76
26859;BME280;14429;48.346;16.338;2023-05-16T00:52:53;99284.25;;;17.81;57.11
26859;BME280;14429;48.346;16.338;2023-05-16T00:55:19;99267.69;;;17.76;57.18
26859;BME280;14429;48.346;16.338;2023-05-16T00:57:44;99271.28;;;17.84;56.92
26859;BME280;14429;48.346;16.338;2023-05-16T01:00:11;99264.31;;;17.74;57.30
26859;BME280;14429;48.346;16.338;2023-05-16T01:02:38;99265.38;;;17.81;57.03
26859;BME280;14429;48.346;16.338;2023-05-16T01:05:04;99269.00;;;17.72;57.50
26859;BME280;14429;48.346;16.338;2023-05-16T01:07:29;99276.91;;;17.66;57.52
26859;BME280;14429;48.346;16.338;2023-05-16T01:09:56;99272.88;;;17.70;57.48
26859;BME280;14429;48.346;16.338;2023-05-16T01:12:28;99271.63;;;17.56;57.63
26859;BME280;14429;48.346;16.338;2023-05-16T01:15:03;99271.56;;;17.74;57.32
26859;BME280;14429;48.346;16.338;2023-05-16T01:17:35;99283.31;;;17.05;59.00
26859;BME280;14429;48.346;16.338;2023-05-16T01:20:08;99274.00;;;16.83;59.00
26859;BME280;14429;48.346;16.338;2023-05-16T01:22:45;99280.59;;;16.37;62.07
26859;BME280;14429;48.346;16.338;2023-05-16T01:25:21;99285.31;;;16.52;61.80
26859;BME280;14429;48.346;16.338;2023-05-16T01:27:54;99275.38;;;16.87;59.86
26859;BME280;14429;48.346;16.338;2023-05-16T01:30:19;99288.88;;;16.26;62.48
26859;BME280;14429;48.346;16.338;2023-05-16T01:32:45;99281.72;;;16.78;60.97
26859;BME280;14429;48.346;16.338;2023-05-16T01:35:13;99277.88;;;16.19;62.09
26859;BME280;14429;48.346;16.338;2023-05-16T01:37:44;99284.06;;;15.93;63.38
26859;BME280;14429;48.346;16.338;2023-05-16T01:40:18;99291.03;;;15.87;63.85
26859;BME280;14429;48.346;16.338;2023-05-16T01:42:49;99285.25;;;16.08;63.27
26859;BME280;14429;48.346;16.338;2023-05-16T01:45:23;99286.31;;;16.51;61.96
26859;BME280;14429;48.346;16.338;2023-05-16T01:47:55;99279.81;;;16.27;61.08
26859;BME280;14429;48.346;16.338;2023-05-16T01:50:25;99277.78;;;15.76;63.81
26859;BME280;14429;48.346;16.338;2023-05-16T01:52:57;99275.88;;;16.65;61.56
26859;BME280;14429;48.346;16.338;2023-05-16T01:55:30;99276.78;;;16.39;61.83
26859;BME280;14429;48.346;16.338;2023-05-16T01:57:59;99275.69;;;16.49;60.75
26859;BME280;14429;48.346;16.338;2023-05-16T02:00:28;99280.75;;;15.73;63.53
26859;BME280;14429;48.346;16.338;2023-05-16T02:02:53;99280.41;;;15.94;63.48
26859;BME280;14429;48.346;16.338;2023-05-16T02:05:19;99277.47;;;15.79;63.94
26859;BME280;14429;48.346;16.338;2023-05-16T02:07:44;99269.75;;;16.29;62.78
26859;BME280;14429;48.346;16.338;2023-05-16T02:10:11;99259.91;;;16.20;61.22
26859;BME280;14429;48.346;16.338;2023-05-16T02:12:37;99266.97;;;16.38;62.08
26859;BME280;14429;48.346;16.338;2023-05-16T02:15:02;99269.03;;;16.53;61.66
26859;BME280;14429;48.346;16.338;2023-05-16T02:17:29;99265.41;;;16.62;61.29
26859;BME280;14429;48.346;16.338;2023-05-16T02:19:55;99280.47;;;16.90;60.29
26859;BME280;14429;48.346;16.338;2023-05-16T02:22:20;99278.72;;;16.98;59.29
26859;BME280;14429;48.346;16.338;2023-05-16T02:24:45;99285.19;;;16.53;61.28
26859;BME280;14429;48.346;16.338;2023-05-16T02:27:11;99284.75;;;15.95;63.08
26859;BME280;14429;48.346;16.338;2023-05-16T02:29:36;99282.31;;;16.11;62.09
26859;BME280;14429;48.346;16.338;2023-05-16T02:32:02;99281.84;;;16.59;61.28
26859;BME280;14429;48.346;16.338;2023-05-16T02:34:29;99271.25;;;16.92;60.15
26859;BME280;14429;48.346;16.338;2023-05-16T02:36:54;99270.34;;;16.84;60.19
26859;BME280;14429;48.346;16.338;2023-05-16T02:39:20;99270.78;;;16.97;59.92
26859;BME280;14429;48.346;16.338;2023-05-16T02:41:45;99271.56;;;17.06;59.51
26859;BME280;14429;48.346;16.338;2023-05-16T02:44:10;99279.50;;;16.91;58.77
26859;BME280;14429;48.346;16.338;2023-05-16T02:46:36;99280.03;;;17.11;59.21
26859;BME280;14429;48.346;16.338;2023-05-16T02:49:01;99273.28;;;17.07;58.88
26859;BME280;14429;48.346;16.338;2023-05-16T02:51:28;99281.88;;;17.11;58.87
26859;BME280;14429;48.346;16.338;2023-05-16T02:53:54;99270.78;;;16.97;58.25
26859;BME280;14429;48.346;16.338;2023-05-16T02:56:21;99276.72;;;17.17;58.96
26859;BME280;14429;48.346;16.338;2023-05-16T02:58:47;99270.09;;;17.12;58.57
26859;BME280;14429;48.346;16.338;2023-05-16T03:01:13;99274.34;;;16.80;59.57
26859;BME280;14429;48.346;16.338;2023-05-16T03:03:39;99267.28;;;17.13;59.31
26859;BME280;14429;48.346;16.338;2023-05-16T03:06:04;99255.84;;;17.19;58.79
26859;BME280;14429;48.346;16.338;2023-05-16T03:08:31;99259.94;;;17.06;59.21
26859;BME280;14429;48.346;16.338;2023-05-16T03:10:57;99252.91;;;17.13;58.79
26859;BME280;14429;48.346;16.338;2023-05-16T03:13:22;99249.03;;;17.07;58.88
26859;BME280;14429;48.346;16.338;2023-05-16T03:15:47;99250.91;;;16.98;58.51
26859;BME280;14429;48.346;16.338;2023-05-16T03:18:13;99236.75;;;17.13;58.77
26859;BME280;14429;48.346;16.338;2023-05-16T03:20:39;99232.75;;;16.99;59.17
26859;BME280;14429;48.346;16.338;2023-05-16T03:23:05;99238.31;;;16.81;59.85
26859;BME280;14429;48.346;16.338;2023-05-16T03:25:31;99235.22;;;16.42;59.89
26859;BME280;14429;48.346;16.338;2023-05-16T03:27:57;99228.78;;;16.69;59.38
26859;BME280;14429;48.346;16.338;2023-05-16T03:30:22;99229.59;;;16.18;62.14
26859;BME280;14429;48.346;16.338;2023-05-16T03:32:48;99225.69;;;16.64;60.63
26859;BME280;14429;48.346;16.338;2023-05-16T03:35:13;99232.47;;;16.68;59.96
26859;BME280;14429;48.346;16.338;2023-05-16T03:37:39;99230.47;;;16.70;59.87
26859;BME280;14429;48.346;16.338;2023-05-16T03:40:06;99231.84;;;16.74;59.61
26859;BME280;14429;48.346;16.338;2023-05-16T03:42:33;99232.47;;;16.68;60.27
26859;BME280;14429;48.346;16.338;2023-05-16T03:44:58;99238.78;;;16.59;59.96
26859;BME280;14429;48.346;16.338;2023-05-16T03:47:24;99234.91;;;16.79;59.81
26859;BME280;14429;48.346;16.338;2023-05-16T03:49:49;99236.16;;;16.67;59.57
26859;BME280;14429;48.346;16.338;2023-05-16T03:52:15;99241.56;;;16.67;59.67
26859;BME280;14429;48.346;16.338;2023-05-16T03:54:40;99246.41;;;16.98;59.35
26859;BME280;14429;48.346;16.338;2023-05-16T03:57:06;99252.78;;;17.14;58.83
26859;BME280;14429;48.346;16.338;2023-05-16T03:59:33;99262.31;;;17.26;58.37
26859;BME280;14429;48.346;16.338;2023-05-16T04:01:58;99253.44;;;17.16;58.77
26859;BME280;14429;48.346;16.338;2023-05-16T04:04:23;99263.88;;;17.11;58.58
26859;BME280;14429;48.346;16.338;2023-05-16T04:06:49;99264.94;;;17.18;58.40
26859;BME280;14429;48.346;16.338;2023-05-16T04:09:14;99268.41;;;17.11;58.07
26859;BME280;14429;48.346;16.338;2023-05-16T04:11:40;99262.91;;;17.20;58.42
26859;BME280;14429;48.346;16.338;2023-05-16T04:14:05;99268.38;;;16.94;59.39
26859;BME280;14429;48.346;16.338;2023-05-16T04:16:32;99265.00;;;17.09;58.96
26859;BME280;14429;48.346;16.338;2023-05-16T04:18:57;99262.25;;;16.84;59.65
26859;BME280;14429;48.346;16.338;2023-05-16T04:21:23;99245.56;;;16.63;60.48
26859;BME280;14429;48.346;16.338;2023-05-16T04:23:48;99244.53;;;16.64;60.60
26859;BME280;14429;48.346;16.338;2023-05-16T04:26:13;99245.50;;;16.73;60.07
26859;BME280;14429;48.346;16.338;2023-05-16T04:28:39;99243.84;;;16.97;59.38
26859;BME280;14429;48.346;16.338;2023-05-16T04:31:04;99239.53;;;17.03;59.00
26859;BME280;14429;48.346;16.338;2023-05-16T04:33:31;99253.66;;;17.05;58.86
26859;BME280;14429;48.346;16.338;2023-05-16T04:35:56;99253.09;;;17.11;58.73
26859;BME280;14429;48.346;16.338;2023-05-16T04:38:22;99255.72;;;17.21;58.37
26859;BME280;14429;48.346;16.338;2023-05-16T04:40:47;99256.59;;;17.29;58.21
26859;BME280;14429;48.346;16.338;2023-05-16T04:43:13;99267.38;;;17.29;57.91
26859;BME280;14429;48.346;16.338;2023-05-16T04:45:38;99269.28;;;17.36;57.74
26859;BME280;14429;48.346;16.338;2023-05-16T04:48:04;99261.03;;;17.38;57.84
26859;BME280;14429;48.346;16.338;2023-05-16T04:50:31;99260.03;;;17.39;57.73
26859;BME280;14429;48.346;16.338;2023-05-16T04:52:57;99271.19;;;17.44;57.38
26859;BME280;14429;48.346;16.338;2023-05-16T04:55:22;99283.00;;;17.43;57.59
26859;BME280;14429;48.346;16.338;2023-05-16T04:57:47;99296.13;;;17.46;57.33
26859;BME280;14429;48.346;16.338;2023-05-16T05:00:14;99305.41;;;17.43;57.41
26859;BME280;14429;48.346;16.338;2023-05-16T05:02:39;99308.09;;;17.43;57.56
26859;BME280;14429;48.346;16.338;2023-05-16T05:05:05;99314.66;;;17.41;57.61
26859;BME280;14429;48.346;16.338;2023-05-16T05:07:32;99307.25;;;17.43;57.62
26859;BME280;14429;48.346;16.338;2023-05-16T05:09:58;99301.69;;;17.44;57.26
26859;BME280;14429;48.346;16.338;2023-05-16T05:12:24;99301.53;;;17.46;57.39
26859;BME280;14429;48.346;16.338;2023-05-16T05:14:49;99298.78;;;17.38;57.76
26859;BME280;14429;48.346;16.338;2023-05-16T05:17:14;99294.69;;;17.34;58.12
26859;BME280;14429;48.346;16.338;2023-05-16T05:19:40;99289.56;;;17.23;58.61
26859;BME280;14429;48.346;16.338;2023-05-16T05:22:05;99281.53;;;17.31;57.98
26859;BME280;14429;48.346;16.338;2023-05-16T05:24:32;99273.19;;;17.42;57.43
26859;BME280;14429;48.346;16.338;2023-05-16T05:26:57;99278.59;;;17.42;57.38
26859;BME280;14429;48.346;16.338;2023-05-16T05:29:23;99274.03;;;17.42;57.67
26859;BME280;14429;48.346;16.338;2023-05-16T05:31:48;99283.66;;;17.45;57.39
26859;BME280;14429;48.346;16.338;2023-05-16T05:34:14;99282.59;;;17.38;57.62
26859;BME280;14429;48.346;16.338;2023-05-16T05:36:39;99304.41;;;17.44;57.41
26859;BME280;14429;48.346;16.338;2023-05-16T05:39:04;99309.63;;;17.46;57.17
26859;BME280;14429;48.346;16.338;2023-05-16T05:41:31;99311.25;;;17.39;57.72
26859;BME280;14429;48.346;16.338;2023-05-16T05:43:57;99326.50;;;17.48;57.22
26859;BME280;14429;48.346;16.338;2023-05-16T05:46:23;99315.41;;;17.51;57.13
26859;BME280;14429;48.346;16.338;2023-05-16T05:48:49;99304.63;;;17.51;57.10
26859;BME280;14429;48.346;16.338;2023-05-16T05:51:15;99297.75;;;17.56;56.96
26859;BME280;14429;48.346;16.338;2023-05-16T05:53:41;99300.25;;;17.57;57.04
26859;BME280;14429;48.346;16.338;2023-05-16T05:56:06;99305.34;;;17.60;56.69
26859;BME280;14429;48.346;16.338;2023-05-16T05:58:33;99311.03;;;17.57;56.65
26859;BME280;14429;48.346;16.338;2023-05-16T06:00:59;99313.06;;;17.55;56.74
26859;BME280;14429;48.346;16.338;2023-05-16T06:03:24;99308.84;;;17.53;57.07
26859;BME280;14429;48.346;16.338;2023-05-16T06:05:49;99315.06;;;17.53;57.11
26859;BME280;14429;48.346;16.338;2023-05-16T06:08:15;99307.63;;;17.48;57.49
26859;BME280;14429;48.346;16.338;2023-05-16T06:10:40;99305.59;;;17.50;57.08
26859;BME280;14429;48.346;16.338;2023-05-16T06:13:06;99306.13;;;17.53;56.82
26859;BME280;14429;48.346;16.338;2023-05-16T06:15:33;99298.88;;;17.53;57.04
26859;BME280;14429;48.346;16.338;2023-05-16T06:17:58;99307.25;;;17.43;58.49
26859;BME280;14429;48.346;16.338;2023-05-16T06:20:23;99293.69;;;17.35;59.81
26859;BME280;14429;48.346;16.338;2023-05-16T06:22:49;99286.19;;;17.46;57.50
26859;BME280;14429;48.346;16.338;2023-05-16T06:25:14;99281.72;;;17.54;57.06
26859;BME280;14429;48.346;16.338;2023-05-16T06:27:40;99280.50;;;17.49;57.57
26859;BME280;14429;48.346;16.338;2023-05-16T06:30:06;99290.78;;;17.53;56.96
26859;BME280;14429;48.346;16.338;2023-05-16T06:32:33;99288.44;;;17.51;57.21
26859;BME280;14429;48.346;16.338;2023-05-16T06:34:59;99284.44;;;17.54;56.98
26859;BME280;14429;48.346;16.338;2023-05-16T06:37:24;99291.81;;;17.53;57.02
26859;BME280;14429;48.346;16.338;2023-05-16T06:39:49;99287.56;;;17.50;56.95
26859;BME280;14429;48.346;16.338;2023-05-16T06:42:15;99295.53;;;17.52;56.89
26859;BME280;14429;48.346;16.338;2023-05-16T06:44:40;99297.19;;;17.53;56.90
26859;BME280;14429;48.346;16.338;2023-05-16T06:47:06;99288.75;;;17.48;58.23
26859;BME280;14429;48.346;16.338;2023-05-16T06:49:32;99286.41;;;17.53;56.99
26859;BME280;14429;48.346;16.338;2023-05-16T06:51:58;99289.81;;;17.54;56.86
26859;BME280;14429;48.346;16.338;2023-05-16T06:54:23;99301.75;;;17.52;57.00
26859;BME280;14429;48.346;16.338;2023-05-16T06:56:49;99300.06;;;17.51;57.32
26859;BME280;14429;48.346;16.338;2023-05-16T06:59:14;99294.38;;;17.54;56.95
26859;BME280;14429;48.346;16.338;2023-05-16T07:01:40;99298.88;;;17.53;56.92
26859;BME280;14429;48.346;16.338;2023-05-16T07:04:05;99296.19;;;17.53;56.88
26859;BME280;14429;48.346;16.338;2023-05-16T07:06:32;99290.97;;;17.52;57.06
26859;BME280;14429;48.346;16.338;2023-05-16T07:08:57;99291.28;;;17.49;58.49
26859;BME280;14429;48.346;16.338;2023-05-16T07:11:23;99302.78;;;17.34;60.67
26859;BME280;14429;48.346;16.338;2023-05-16T07:13:48;99288.53;;;17.41;57.78
26859;BME280;14429;48.346;16.338;2023-05-16T07:16:14;99284.72;;;17.52;57.14
26859;BME280;14429;48.346;16.338;2023-05-16T07:18:39;99279.34;;;17.52;57.40
26859;BME280;14429;48.346;16.338;2023-05-16T07:21:05;99292.78;;;17.44;57.35
26859;BME280;14429;48.346;16.338;2023-05-16T07:23:31;99289.22;;;17.43;57.79
26859;BME280;14429;48.346;16.338;2023-05-16T07:25:57;99289.00;;;17.37;59.68
26859;BME280;14429;48.346;16.338;2023-05-16T07:28:23;99296.47;;;17.43;57.77
26859;BME280;14429;48.346;16.338;2023-05-16T07:30:48;99294.81;;;17.50;57.38
26859;BME280;14429;48.346;16.338;2023-05-16T07:33:13;99297.16;;;17.45;57.45
26859;BME280;14429;48.346;16.338;2023-05-16T07:35:39;99307.25;;;17.43;57.55
26859;BME280;14429;48.346;16.338;2023-05-16T07:38:04;99311.47;;;17.45;57.45
26859;BME280;14429;48.346;16.338;2023-05-16T07:40:31;99312.31;;;17.46;57.56
26859;BME280;14429;48.346;16.338;2023-05-16T07:42:56;99311.25;;;17.39;57.76
26859;BME280;14429;48.346;16.338;2023-05-16T07:45:22;99313.94;;;17.39;57.65
26859;BME280;14429;48.346;16.338;2023-05-16T07:47:47;99318.50;;;17.38;57.88
26859;BME280;14429;48.346;16.338;2023-05-16T07:50:13;99311.94;;;17.41;57.82
26859;BME280;14429;48.346;16.338;2023-05-16T07:52:38;99322.66;;;17.33;58.25
26859;BME280;14429;48.346;16.338;2023-05-16T07:55:04;99323.22;;;17.36;57.80
26859;BME280;14429;48.346;16.338;2023-05-16T07:57:31;99334.84;;;17.37;57.70
26859;BME280;14429;48.346;16.338;2023-05-16T07:59:57;99338.53;;;17.36;57.84
26859;BME280;14429;48.346;16.338;2023-05-16T08:02:23;99353.34;;;17.32;58.25
26859;BME280;14429;48.346;16.338;2023-05-16T08:04:48;99356.41;;;17.37;57.80
26859;BME280;14429;48.346;16.338;2023-05-16T08:07:13;99356.09;;;17.40;57.63
26859;BME280;14429;48.346;16.338;2023-05-16T08:09:39;99359.47;;;17.42;57.58
26859;BME280;14429;48.346;16.338;2023-05-16T08:12:05;99351.53;;;17.40;57.77
26859;BME280;14429;48.346;16.338;2023-05-16T08:14:32;99356.69;;;17.34;58.50
26859;BME280;14429;48.346;16.338;2023-05-16T08:16:57;99349.75;;;17.31;58.55
26859;BME280;14429;48.346;16.338;2023-05-16T08:19:23;99356.16;;;17.30;58.50
26859;BME280;14429;48.346;16.338;2023-05-16T08:21:48;99356.69;;;17.34;59.26
26859;BME280;14429;48.346;16.338;2023-05-16T08:24:14;99361.66;;;17.21;60.36
26859;BME280;14429;48.346;16.338;2023-05-16T08:26:39;99366.09;;;17.30;58.20
26859;BME280;14429;48.346;16.338;2023-05-16T08:29:04;99374.56;;;17.35;58.02
26859;BME280;14429;48.346;16.338;2023-05-16T08:31:31;99374.44;;;17.36;57.90
26859;BME280;14429;48.346;16.338;2023-05-16T08:33:57;99390.72;;;17.35;57.69
26859;BME280;14429;48.346;16.338;2023-05-16T08:36:22;99396.13;;;17.35;59.05
26859;BME280;14429;48.346;16.338;2023-05-16T08:38:48;99393.13;;;17.38;57.84
26859;BME280;14429;48.346;16.338;2023-05-16T08:41:14;99400.63;;;17.09;63.36
26859;BME280;14429;48.346;16.338;2023-05-16T08:43:39;99407.84;;;17.26;58.69
26859;BME280;14429;48.346;16.338;2023-05-16T08:46:06;99401.84;;;17.32;58.11
26859;BME280;14429;48.346;16.338;2023-05-16T08:48:33;99393.44;;;17.35;57.83
26859;BME280;14429;48.346;16.338;2023-05-16T08:50:59;99388.75;;;17.37;57.90
26859;BME280;14429;48.346;16.338;2023-05-16T08:53:30;99386.22;;;17.35;58.11
26859;BME280;14429;48.346;16.338;2023-05-16T08:55:57;99398.69;;;17.36;57.83
26859;BME280;14429;48.346;16.338;2023-05-16T08:58:23;99402.06;;;17.38;57.59
26859;BME280;14429;48.346;16.338;2023-05-16T09:00:49;99391.97;;;17.40;57.62
26859;BME280;14429;48.346;16.338;2023-05-16T09:03:15;99389.44;;;17.39;57.83
26859;BME280;14429;48.346;16.338;2023-05-16T09:05:42;99391.81;;;17.42;57.61
26859;BME280;14429;48.346;16.338;2023-05-16T09:08:08;99375.34;;;17.45;57.55
26859;BME280;14429;48.346;16.338;2023-05-16T09:10:33;99373.78;;;17.42;57.38
26859;BME280;14429;48.346;16.338;2023-05-16T09:12:58;99370.97;;;17.44;57.50
26859;BME280;14429;48.346;16.338;2023-05-16T09:15:30;99358.09;;;17.38;57.63
26859;BME280;14429;48.346;16.338;2023-05-16T09:17:59;99359.09;;;17.37;57.63
26859;BME280;14429;48.346;16.338;2023-05-16T09:20:24;99358.78;;;17.40;57.49
26859;BME280;14429;48.346;16.338;2023-05-16T09:22:53;99363.47;;;17.38;57.67
26859;BME280;14429;48.346;16.338;2023-05-16T09:25:19;99348.47;;;17.35;57.51
26859;BME280;14429;48.346;16.338;2023-05-16T09:27:45;99345.78;;;17.35;57.69
26859;BME280;14429;48.346;16.338;2023-05-16T09:30:13;99339.69;;;17.33;57.97
26859;BME280;14429;48.346;16.338;2023-05-16T09:32:42;99334.84;;;17.37;57.81
26859;BME280;14429;48.346;16.338;2023-05-16T09:35:10;99333.16;;;17.36;57.59
26859;BME280;14429;48.346;16.338;2023-05-16T09:37:35;99322.38;;;17.36;57.62
26859;BME280;14429;48.346;16.338;2023-05-16T09:40:03;99326.03;;;17.35;58.01
26859;BME280;14429;48.346;16.338;2023-05-16T09:42:30;99322.97;;;17.30;57.76
26859;BME280;14429;48.346;16.338;2023-05-16T09:44:55;99317.28;;;17.33;57.75
26859;BME280;14429;48.346;16.338;2023-05-16T09:47:21;99304.47;;;17.35;57.66
26859;BME280;14429;48.346;16.338;2023-05-16T09:49:51;99304.81;;;17.32;57.59
26859;BME280;14429;48.346;16.338;2023-05-16T09:52:16;99298.03;;;17.28;59.46
26859;BME280;14429;48.346;16.338;2023-05-16T09:54:42;99291.66;;;17.29;57.91
26859;BME280;14429;48.346;16.338;2023-05-16T09:57:09;99287.56;;;17.25;58.40
26859;BME280;14429;48.346;16.338;2023-05-16T09:59:35;99288.25;;;17.27;57.85
26859;BME280;14429;48.346;16.338;2023-05-16T10:02:01;99300.88;;;17.27;57.83
26859;BME280;14429;48.346;16.338;2023-05-16T10:04:27;99319.06;;;17.25;58.06
26859;BME280;14429;48.346;16.338;2023-05-16T10:06:54;99328.53;;;17.11;61.09
26859;BME280;14429;48.346;16.338;2023-05-16T10:09:20;99323.94;;;17.21;58.67
26859;BME280;14429;48.346;16.338;2023-05-16T10:11:47;99324.28;;;17.26;58.06
26859;BME280;14429;48.346;16.338;2023-05-16T10:14:16;99325.84;;;17.28;58.00
26859;BME280;14429;48.346;16.338;2023-05-16T10:16:42;99325.31;;;17.25;58.03
26859;BME280;14429;48.346;16.338;2023-05-16T10:19:08;99328.69;;;17.27;57.90
26859;BME280;14429;48.346;16.338;2023-05-16T10:21:36;99330.22;;;17.29;57.89
26859;BME280;14429;48.346;16.338;2023-05-16T10:24:06;99338.47;;;17.28;57.71
26859;BME280;14429;48.346;16.338;2023-05-16T10:26:33;99345.38;;;17.30;57.85
26859;BME280;14429;48.346;16.338;2023-05-16T10:28:59;99352.63;;;17.30;57.96
26859;BME280;14429;48.346;16.338;2023-05-16T10:31:27;99361.56;;;17.30;57.83
26859;BME280;14429;48.346;16.338;2023-05-16T10:33:53;99353.34;;;17.32;57.75
26859;BME280;14429;48.346;16.338;2023-05-16T10:36:19;99362.41;;;17.31;57.81
26859;BME280;14429;48.346;16.338;2023-05-16T10:38:45;99361.56;;;17.30;57.80
26859;BME280;14429;48.346;16.338;2023-05-16T10:41:11;99353.63;;;17.29;57.86
26859;BME280;14429;48.346;16.338;2023-05-16T10:43:37;99364.41;;;17.29;57.96
26859;BME280;14429;48.346;16.338;2023-05-16T10:46:05;99362.88;;;17.27;58.01
26859;BME280;14429;48.346;16.338;2023-05-16T10:48:33;99368.25;;;17.27;58.01
26859;BME280;14429;48.346;16.338;2023-05-16T10:50:59;99358.50;;;17.26;57.97
26859;BME280;14429;48.346;16.338;2023-05-16T10:53:30;99363.88;;;17.26;58.06
26859;BME280;14429;48.346;16.338;2023-05-16T10:56:09;99368.44;;;17.25;57.99
26859;BME280;14429;48.346;16.338;2023-05-16T10:58:40;99376.81;;;17.22;57.94
26859;BME280;14429;48.346;16.338;2023-05-16T11:01:16;99378.38;;;17.25;58.15
26859;BME280;14429;48.346;16.338;2023-05-16T11:04:04;99367.88;;;17.22;58.11
26859;BME280;14429;48.346;16.338;2023-05-16T11:06:31;99364.88;;;17.25;58.22
26859;BME280;14429;48.346;16.338;2023-05-16T11:09:03;99351.25;;;17.26;57.93
26859;BME280;14429;48.346;16.338;2023-05-16T11:11:40;99356.56;;;17.18;63.25
26859;BME280;14429;48.346;16.338;2023-05-16T11:14:06;99352.88;;;17.19;59.56
26859;BME280;14429;48.346;16.338;2023-05-16T11:16:33;99357.41;;;17.19;59.95
26859;BME280;14429;48.346;16.338;2023-05-16T11:19:05;99360.41;;;17.16;61.36
26859;BME280;14429;48.346;16.338;2023-05-16T11:24:30;99357.56;;;17.17;59.64
26859;BME280;14429;48.346;16.338;2023-05-16T11:26:56;99352.88;;;17.19;58.82
26859;BME280;14429;48.346;16.338;2023-05-16T11:29:22;99365.66;;;17.17;59.17
26859;BME280;14429;48.346;16.338;2023-05-16T11:31:48;99358.97;;;17.21;58.38
26859;BME280;14429;48.346;16.338;2023-05-16T11:34:15;99352.88;;;17.19;59.90
26859;BME280;14429;48.346;16.338;2023-05-16T11:36:40;99351.47;;;17.15;59.01
26859;BME280;14429;48.346;16.338;2023-05-16T11:39:06;99343.56;;;17.14;58.93
26859;BME280;14429;48.346;16.338;2023-05-16T11:41:31;99332.47;;;17.17;58.46
26859;BME280;14429;48.346;16.338;2023-05-16T11:43:57;99326.22;;;17.16;58.42
26859;BME280;14429;48.346;16.338;2023-05-16T11:46:22;99321.19;;;17.04;62.71
26859;BME280;14429;48.346;16.338;2023-05-16T11:48:50;99326.03;;;17.00;60.29
26859;BME280;14429;48.346;16.338;2023-05-16T11:51:20;99336.91;;;17.08;58.81
26859;BME280;14429;48.346;16.338;2023-05-16T11:53:46;99332.53;;;17.07;59.19
26859;BME280;14429;48.346;16.338;2023-05-16T11:56:12;99343.03;;;17.10;58.77
26859;BME280;14429;48.346;16.338;2023-05-16T11:58:37;99332.25;;;17.10;58.67
26859;BME280;14429;48.346;16.338;2023-05-16T12:01:03;99334.28;;;16.99;60.90
26859;BME280;14429;48.346;16.338;2023-05-16T12:03:28;99323.34;;;17.00;59.67
26859;BME280;14429;48.346;16.338;2023-05-16T12:05:55;99317.13;;;17.00;61.59
26859;BME280;14429;48.346;16.338;2023-05-16T12:08:22;99316.81;;;17.03;59.08
26859;BME280;14429;48.346;16.338;2023-05-16T12:10:48;99324.06;;;17.02;58.95
26859;BME280;14429;48.346;16.338;2023-05-16T12:13:14;99333.81;;;17.03;59.03
26859;BME280;14429;48.346;16.338;2023-05-16T12:15:40;99320.75;;;16.91;61.04
26859;BME280;14429;48.346;16.338;2023-05-16T12:18:06;99312.88;;;16.98;59.41
26859;BME280;14429;48.346;16.338;2023-05-16T12:20:31;99306.50;;;16.99;59.99
26859;BME280;14429;48.346;16.338;2023-05-16T12:22:57;99306.81;;;16.96;59.88
26859;BME280;14429;48.346;16.338;2023-05-16T12:25:28;99301.41;;;16.96;60.16
26859;BME280;14429;48.346;16.338;2023-05-16T12:27:54;99302.81;;;16.99;59.45
26859;BME280;14429;48.346;16.338;2023-05-16T12:30:21;99297.41;;;16.99;59.83
26859;BME280;14429;48.346;16.338;2023-05-16T12:32:51;99300.78;;;17.01;62.73
26859;BME280;14429;48.346;16.338;2023-05-16T12:35:17;99294.34;;;16.95;61.81
26859;BME280;14429;48.346;16.338;2023-05-16T12:37:42;99287.78;;;16.97;60.21
26859;BME280;14429;48.346;16.338;2023-05-16T12:40:09;99290.00;;;17.01;59.32
26859;BME280;14429;48.346;16.338;2023-05-16T12:42:35;99286.34;;;17.02;59.96
26859;BME280;14429;48.346;16.338;2023-05-16T12:45:01;99274.13;;;17.08;58.97
26859;BME280;14429;48.346;16.338;2023-05-16T12:47:34;99274.25;;;17.06;59.03
26859;BME280;14429;48.346;16.338;2023-05-16T12:50:00;99262.50;;;17.07;58.81